createdAt,value
2018-09-24T00:02:04.299Z,95178.32
2018-09-24T00:04:31.034Z,95180.59
2018-09-24T00:06:57.730Z,95168.84
2018-09-24T00:09:24.371Z,95180.98
2018-09-24T00:11:51.047Z,95177.36
2018-09-24T00:14:17.700Z,95166.59
2018-09-24T00:16:44.382Z,95163.32
2018-09-24T00:19:11.065Z,95162.82
2018-09-24T00:21:37.750Z,95156.53
2018-09-24T00:24:04.500Z,95161.55
2018-09-24T00:26:31.173Z,95158.69
2018-09-24T00:28:57.815Z,95155.27
2018-09-24T00:31:27.151Z,95147.56
2018-09-24T00:33:53.822Z,95148.81
2018-09-24T00:36:20.582Z,95135.34
2018-09-24T00:38:49.356Z,95135.41
2018-09-24T00:41:16.046Z,95139.05
2018-09-24T00:43:42.686Z,95131.73
2018-09-24T00:46:09.433Z,95123.88
2018-09-24T00:48:36.075Z,95118.20
2018-09-24T00:51:03.822Z,95117.73
2018-09-24T00:53:29.419Z,95107.73
2018-09-24T00:55:56.079Z,95110.39
2018-09-24T00:58:22.748Z,95110.77
2018-09-24T01:00:49.493Z,95107.66
2018-09-24T01:03:16.139Z,95121.03
2018-09-24T01:05:42.796Z,95112.56
2018-09-24T01:08:09.418Z,95105.89
2018-09-24T01:10:37.197Z,95104.00
2018-09-24T01:13:03.961Z,95094.78
2018-09-24T01:15:30.566Z,95098.61
2018-09-24T01:17:57.253Z,95097.47
2018-09-24T01:20:23.893Z,95097.98
2018-09-24T01:22:50.556Z,95094.45
2018-09-24T01:25:17.331Z,95085.84
2018-09-24T01:27:43.980Z,95082.99
2018-09-24T01:30:11.616Z,95082.41
2018-09-24T01:32:37.277Z,95082.31
2018-09-24T01:35:03.915Z,95082.88
2018-09-24T01:37:31.821Z,95077.86
2018-09-24T01:39:57.266Z,95070.27
2018-09-24T01:42:23.962Z,95057.62
2018-09-24T01:44:50.609Z,95060.67
2018-09-24T01:47:18.491Z,95053.77
2018-09-24T01:49:43.907Z,95063.36
2018-09-24T01:52:10.554Z,95041.63
2018-09-24T01:54:37.181Z,95043.70
2018-09-24T01:57:03.823Z,95048.83
2018-09-24T01:59:30.462Z,95049.27
2018-09-24T02:01:57.189Z,95054.02
2018-09-24T02:04:23.828Z,95051.15
2018-09-24T02:06:50.545Z,95050.53
2018-09-24T02:09:17.226Z,95054.70
2018-09-24T02:11:43.874Z,95050.79
2018-09-24T02:14:10.522Z,95056.09
2018-09-24T02:16:37.523Z,95061.40
2018-09-24T02:19:04.159Z,95058.34
2018-09-24T02:21:30.803Z,95055.39
2018-09-24T02:23:57.448Z,95056.57
2018-09-24T02:26:24.093Z,95047.35
2018-09-24T02:28:53.924Z,95052.80
2018-09-24T02:31:20.631Z,95035.73
2018-09-24T02:33:47.320Z,95042.35
2018-09-24T02:36:14.000Z,95040.96
2018-09-24T02:38:40.621Z,95016.55
2018-09-24T02:41:07.288Z,95029.45
2018-09-24T02:43:33.954Z,95027.69
2018-09-24T02:46:00.586Z,95014.59
2018-09-24T02:48:27.237Z,95029.08
2018-09-24T02:50:53.875Z,95024.06
2018-09-24T02:53:20.512Z,95018.05
2018-09-24T02:55:49.369Z,95018.64
2018-09-24T02:58:13.798Z,95018.05
2018-09-24T03:00:40.471Z,95035.77
2018-09-24T03:03:10.254Z,95027.85
2018-09-24T03:05:36.912Z,95017.70
2018-09-24T03:08:03.527Z,95012.39
2018-09-24T03:10:30.254Z,95006.00
2018-09-24T03:12:56.941Z,95017.13
2018-09-24T03:15:23.615Z,95014.14
2018-09-24T03:17:50.232Z,94991.14
2018-09-24T03:20:18.113Z,95009.11
2018-09-24T03:22:43.596Z,95008.58
2018-09-24T03:25:10.247Z,94992.27
2018-09-24T03:27:36.888Z,95002.14
2018-09-24T03:30:03.526Z,95002.82
2018-09-24T03:32:30.162Z,95004.92
2018-09-24T03:34:56.861Z,94991.88
2018-09-24T03:37:23.497Z,95029.98
2018-09-24T03:39:50.142Z,94990.10
2018-09-24T03:42:16.812Z,94973.68
2018-09-24T03:44:43.582Z,94993.73
2018-09-24T03:47:10.149Z,94999.83
2018-09-24T03:49:36.802Z,94997.36
2018-09-24T03:52:03.531Z,94984.73
2018-09-24T03:54:30.272Z,94986.28
2018-09-24T03:56:56.909Z,94972.31
2018-09-24T03:59:23.582Z,94994.83
2018-09-24T04:01:50.496Z,94977.87
2018-09-24T04:04:17.096Z,94979.64
2018-09-24T04:06:43.768Z,94971.48
2018-09-24T04:09:10.397Z,94970.22
2018-09-24T04:11:37.113Z,94976.13
2018-09-24T04:14:03.730Z,94975.61
2018-09-24T04:16:32.361Z,94976.29
2018-09-24T04:18:57.157Z,94970.73
2018-09-24T04:21:23.795Z,94967.50
2018-09-24T04:23:50.554Z,94967.50
2018-09-24T04:26:17.221Z,94976.24
2018-09-24T04:28:43.827Z,94963.66
2018-09-24T04:31:10.565Z,94966.61
2018-09-24T04:33:37.318Z,94980.34
2018-09-24T04:36:03.957Z,94949.08
2018-09-24T04:38:30.594Z,94968.28
2018-09-24T04:40:57.300Z,94969.75
2018-09-24T04:43:23.935Z,94961.45
2018-09-24T04:45:51.917Z,94977.52
2018-09-24T04:48:17.333Z,94960.79
2018-09-24T04:50:44.045Z,94973.56
2018-09-24T04:53:13.221Z,94945.31
2018-09-24T04:55:39.905Z,94975.52
2018-09-24T04:58:06.627Z,94951.95
2018-09-24T05:00:34.975Z,94963.02
2018-09-24T05:03:00.011Z,94947.14
2018-09-24T05:05:28.011Z,94972.63
2018-09-24T05:07:53.313Z,94952.02
2018-09-24T05:10:20.021Z,94958.10
2018-09-24T05:12:46.699Z,94975.35
2018-09-24T05:15:13.351Z,94945.60
2018-09-24T05:17:43.094Z,94969.99
2018-09-24T05:20:09.925Z,94969.36
2018-09-24T05:22:36.588Z,94959.83
2018-09-24T05:25:03.232Z,94969.51
2018-09-24T05:27:29.922Z,94967.45
2018-09-24T05:29:56.510Z,94972.62
2018-09-24T05:32:23.197Z,94969.95
2018-09-24T05:34:49.875Z,94955.14
2018-09-24T05:37:16.569Z,94957.41
2018-09-24T05:39:43.207Z,94963.03
2018-09-24T05:42:09.893Z,94958.90
2018-09-24T05:44:36.546Z,94966.44
2018-09-24T05:47:03.192Z,94953.22
2018-09-24T05:49:29.975Z,94963.00
2018-09-24T05:51:59.843Z,94955.45
2018-09-24T05:54:29.381Z,94957.02
2018-09-24T05:56:57.238Z,94953.67
2018-09-24T05:59:22.880Z,94961.16
2018-09-24T06:01:49.531Z,94975.41
2018-09-24T06:04:16.178Z,94955.27
2018-09-24T06:06:45.257Z,94947.42
2018-09-24T06:09:11.893Z,94967.28
2018-09-24T06:11:38.542Z,94967.59
2018-09-24T06:14:05.190Z,94958.75
2018-09-24T06:16:31.831Z,94965.53
2018-09-24T06:18:58.533Z,94969.74
2018-09-24T06:21:25.225Z,94955.65
2018-09-24T06:23:51.861Z,94968.73
2018-09-24T06:26:18.539Z,94968.03
2018-09-24T06:28:45.154Z,94973.22
2018-09-24T06:31:11.784Z,94974.55
2018-09-24T06:33:38.524Z,94977.48
2018-09-24T06:36:06.344Z,94973.54
2018-09-24T06:38:31.828Z,94968.67
2018-09-24T06:40:58.465Z,94970.38
2018-09-24T06:43:25.139Z,94973.98
2018-09-24T06:45:51.890Z,94975.08
2018-09-24T06:48:18.526Z,94978.18
2018-09-24T06:50:45.216Z,94983.23
2018-09-24T06:53:11.857Z,94980.96
2018-09-24T06:55:38.512Z,94969.14
2018-09-24T06:58:05.149Z,94972.41
2018-09-24T07:00:31.853Z,94986.16
2018-09-24T07:02:58.505Z,94974.77
2018-09-24T07:05:25.289Z,94974.77
2018-09-24T07:07:51.934Z,94966.41
2018-09-24T07:10:18.585Z,94956.47
2018-09-24T07:12:48.206Z,94962.03
2018-09-24T07:15:14.987Z,94958.00
2018-09-24T07:17:41.628Z,94955.34
2018-09-24T07:20:09.678Z,94959.08
2018-09-24T07:22:34.910Z,94953.42
2018-09-24T07:25:01.611Z,94955.88
2018-09-24T07:27:28.287Z,94955.22
2018-09-24T07:29:54.943Z,94955.16
2018-09-24T07:32:21.604Z,94955.71
2018-09-24T07:34:48.304Z,94950.58
2018-09-24T07:37:14.946Z,94946.17
2018-09-24T07:39:41.614Z,94955.59
2018-09-24T07:42:08.249Z,94948.61
2018-09-24T07:44:34.948Z,94934.92
2018-09-24T07:47:01.680Z,94944.64
2018-09-24T07:49:28.358Z,94936.98
2018-09-24T07:51:55.001Z,94932.81
2018-09-24T07:54:21.681Z,94939.65
2018-09-24T07:56:48.327Z,94939.91
2018-09-24T07:59:15.074Z,94936.61
2018-09-24T08:01:43.094Z,94939.13
2018-09-24T08:04:08.436Z,94938.00
2018-09-24T08:06:35.112Z,94940.72
2018-09-24T08:09:01.826Z,94938.78
2018-09-24T08:11:28.545Z,94930.55
2018-09-24T08:13:55.223Z,94921.96
2018-09-24T08:16:21.891Z,94925.04
2018-09-24T08:18:51.418Z,94928.97
2018-09-24T08:21:18.021Z,94934.08
2018-09-24T08:23:44.702Z,94925.99
2018-09-24T08:26:11.367Z,94929.35
2018-09-24T08:28:38.048Z,94932.45
2018-09-24T08:31:04.809Z,94926.31
2018-09-24T08:33:31.417Z,94925.06
2018-09-24T08:35:58.090Z,94933.96
2018-09-24T08:38:27.647Z,94923.90
2018-09-24T08:40:54.390Z,94923.64
2018-09-24T08:43:21.163Z,94924.30
2018-09-24T08:45:50.889Z,94922.56
2018-09-24T08:48:17.537Z,94917.58
2018-09-24T08:50:44.189Z,94916.51
2018-09-24T08:53:10.886Z,94917.64
2018-09-24T08:55:37.521Z,94913.23
2018-09-24T08:58:04.304Z,94915.05
2018-09-24T09:00:30.989Z,94911.75
2018-09-24T09:02:57.659Z,94909.87
2018-09-24T09:05:25.341Z,94911.47
2018-09-24T09:07:51.030Z,94910.77
2018-09-24T09:10:17.625Z,94912.64
2018-09-24T09:12:44.270Z,94907.96
2018-09-24T09:15:10.911Z,94897.23
2018-09-24T09:17:37.642Z,94903.67
2018-09-24T09:20:04.333Z,94904.25
2018-09-24T09:22:30.964Z,94892.97
2018-09-24T09:24:57.715Z,94895.76
2018-09-24T09:27:24.340Z,94895.89
2018-09-24T09:29:50.972Z,94896.80
2018-09-24T09:32:17.737Z,94894.36
2018-09-24T09:34:44.378Z,94883.88
2018-09-24T09:37:11.058Z,94885.53
2018-09-24T09:39:37.724Z,94889.84
2018-09-24T09:42:04.329Z,94881.94
2018-09-24T09:44:31.088Z,94885.64
2018-09-24T09:46:57.730Z,94878.89
2018-09-24T09:49:24.469Z,94873.82
2018-09-24T09:51:51.185Z,94867.44
2018-09-24T09:54:17.831Z,94870.11
2018-09-24T09:56:44.476Z,94867.65
2018-09-24T09:59:11.254Z,94863.59
2018-09-24T10:01:37.889Z,94863.02
2018-09-24T10:04:04.523Z,94857.33
2018-09-24T10:06:31.166Z,94856.14
2018-09-24T10:08:57.989Z,94851.08
2018-09-24T10:11:24.641Z,94850.55
2018-09-24T10:13:51.295Z,94837.66
2018-09-24T10:16:18.036Z,94835.45
2018-09-24T10:18:44.673Z,94834.17
2018-09-24T10:21:11.349Z,94834.81
2018-09-24T10:23:37.963Z,94825.39
2018-09-24T10:26:04.678Z,94829.68
2018-09-24T10:28:31.320Z,94824.90
2018-09-24T10:30:58.060Z,94824.33
2018-09-24T10:33:24.868Z,94816.84
2018-09-24T10:35:51.491Z,94810.09
2018-09-24T10:38:18.180Z,94816.14
2018-09-24T10:40:44.919Z,94809.55
2018-09-24T10:43:11.562Z,94799.77
2018-09-24T10:45:38.333Z,94806.78
2018-09-24T10:48:04.972Z,94803.49
2018-09-24T10:50:31.635Z,94809.11
2018-09-24T10:53:01.635Z,94809.28
2018-09-24T10:55:28.317Z,94802.15
2018-09-24T10:57:55.008Z,94802.15
2018-09-24T11:00:21.737Z,94782.66
2018-09-24T11:02:48.375Z,94806.23
2018-09-24T11:05:15.148Z,94798.65
2018-09-24T11:07:44.864Z,94793.26
2018-09-24T11:10:11.494Z,94790.80
2018-09-24T11:12:38.248Z,94793.85
2018-09-24T11:15:04.858Z,94794.80
2018-09-24T11:17:31.801Z,94790.03
2018-09-24T11:19:58.374Z,94783.94
2018-09-24T11:22:25.080Z,94792.87
2018-09-24T11:24:53.844Z,94785.33
2018-09-24T11:27:18.361Z,94788.13
2018-09-24T11:29:45.096Z,94790.34
2018-09-24T11:32:13.495Z,94791.69
2018-09-24T11:34:38.490Z,94791.02
2018-09-24T11:37:05.165Z,94788.13
2018-09-24T11:39:31.795Z,94789.40
2018-09-24T11:41:58.478Z,94791.36
2018-09-24T11:44:25.168Z,94788.19
2018-09-24T11:46:51.872Z,94796.99
2018-09-24T11:49:18.584Z,94802.05
2018-09-24T11:51:45.322Z,94814.67
2018-09-24T11:54:12.004Z,94824.50
2018-09-24T11:56:38.684Z,94827.19
2018-09-24T11:59:05.373Z,94832.55
2018-09-24T12:01:32.004Z,94848.98
2018-09-24T12:03:58.654Z,94863.39
2018-09-24T12:06:25.296Z,94891.38
2018-09-24T12:08:51.954Z,94899.84
2018-09-24T12:11:18.695Z,94905.12
2018-09-24T12:13:45.332Z,94909.47
2018-09-24T12:16:12.050Z,94918.20
2018-09-24T12:18:38.746Z,94919.16
2018-09-24T12:21:05.437Z,94938.69
2018-09-24T12:23:32.074Z,94937.73
2018-09-24T12:25:58.810Z,94955.16
2018-09-24T12:28:25.442Z,94956.17
2018-09-24T12:30:53.784Z,94967.42
2018-09-24T12:33:19.443Z,94965.19
2018-09-24T12:35:46.094Z,94981.19
2018-09-24T12:38:12.963Z,94979.09
2018-09-24T12:40:39.619Z,94984.06
2018-09-24T12:43:06.302Z,94982.72
2018-09-24T12:45:32.952Z,94994.85
2018-09-24T12:48:00.996Z,94996.73
2018-09-24T12:50:26.298Z,95014.97
2018-09-24T12:52:52.981Z,95003.70
2018-09-24T12:55:19.619Z,95020.94
2018-09-24T12:57:46.256Z,95046.31
2018-09-24T13:00:13.018Z,95061.55
2018-09-24T13:02:39.707Z,95054.23
2018-09-24T13:05:06.362Z,95054.19
2018-09-24T13:07:33.008Z,95067.36
2018-09-24T13:09:59.685Z,95083.39
2018-09-24T13:12:26.349Z,95088.81
2018-09-24T13:14:54.994Z,95115.11
2018-09-24T13:17:19.696Z,95131.14
2018-09-24T13:19:46.389Z,95137.89
2018-09-24T13:22:13.025Z,95131.57
2018-09-24T13:24:39.714Z,95140.58
2018-09-24T13:27:06.401Z,95145.38
2018-09-24T13:29:33.104Z,95164.80
2018-09-24T13:31:59.745Z,95173.41
2018-09-24T13:34:26.404Z,95179.57
2018-09-24T13:36:53.044Z,95197.84
2018-09-24T13:39:19.738Z,95207.95
2018-09-24T13:41:46.492Z,95199.47
2018-09-24T13:44:13.124Z,95197.66
2018-09-24T13:46:41.242Z,95193.44
2018-09-24T13:49:06.527Z,95194.48
2018-09-24T13:51:33.219Z,95195.98
2018-09-24T13:53:59.867Z,95210.20
2018-09-24T13:56:26.498Z,95198.94
2018-09-24T13:58:53.270Z,95218.73
2018-09-24T14:01:19.906Z,95223.47
2018-09-24T14:03:46.623Z,95231.02
2018-09-24T14:06:13.332Z,95230.20
2018-09-24T14:08:40.015Z,95227.22
2018-09-24T14:11:06.699Z,95239.36
2018-09-24T14:13:33.395Z,95248.75
2018-09-24T14:16:01.371Z,95247.36
2018-09-24T14:18:26.808Z,95253.27
2018-09-24T14:20:58.860Z,95264.77
2018-09-24T14:23:25.694Z,95272.16
2018-09-24T14:25:52.296Z,95271.64
2018-09-24T14:28:18.933Z,95292.01
2018-09-24T14:30:45.581Z,95286.02
2018-09-24T14:33:12.307Z,95286.58
2018-09-24T14:35:39.045Z,95300.62
2018-09-24T14:38:05.787Z,95284.05
2018-09-24T14:40:32.516Z,95283.00
2018-09-24T14:43:01.014Z,95287.30
2018-09-24T14:45:25.801Z,95288.23
2018-09-24T14:47:52.476Z,95284.43
2018-09-24T14:50:19.120Z,95296.74
2018-09-24T14:52:45.766Z,95304.92
2018-09-24T14:55:15.804Z,95301.67
2018-09-24T14:57:43.925Z,95316.98
2018-09-24T15:00:09.140Z,95320.02
2018-09-24T15:02:35.812Z,95329.47
2018-09-24T15:05:02.576Z,95327.44
2018-09-24T15:07:29.327Z,95346.59
2018-09-24T15:09:55.988Z,95353.68
2018-09-24T15:12:22.685Z,95351.20
2018-09-24T15:14:49.584Z,95360.94
2018-09-24T15:17:16.236Z,95369.92
2018-09-24T15:19:44.196Z,95367.86
2018-09-24T15:22:09.598Z,95378.70
2018-09-24T15:24:36.242Z,95375.23
2018-09-24T15:27:02.888Z,95370.88
2018-09-24T15:29:29.516Z,95372.70
2018-09-24T15:31:56.467Z,95378.91
2018-09-24T15:34:23.129Z,95377.93
2018-09-24T15:36:49.869Z,95387.00
2018-09-24T15:39:16.600Z,95379.58
2018-09-24T15:41:46.466Z,95379.70
2018-09-24T15:44:13.198Z,95386.78
2018-09-24T15:46:39.834Z,95391.13
2018-09-24T15:49:06.561Z,95408.70
2018-09-24T15:51:33.345Z,95418.20
2018-09-24T15:54:03.218Z,95426.72
2018-09-24T15:56:29.871Z,95439.91
2018-09-24T15:58:56.521Z,95439.81
2018-09-24T16:01:23.160Z,95444.48
2018-09-24T16:03:49.793Z,95436.94
2018-09-24T16:06:16.530Z,95442.25
2018-09-24T16:08:43.183Z,95445.19
2018-09-24T16:11:09.883Z,95440.19
2018-09-24T16:13:36.562Z,95448.06
2018-09-24T16:16:03.219Z,95453.79
2018-09-24T16:18:29.898Z,95452.94
2018-09-24T16:20:56.563Z,95458.13
2018-09-24T16:23:23.199Z,95462.99
2018-09-24T16:25:49.846Z,95469.19
2018-09-24T16:28:16.518Z,95479.55
2018-09-24T16:30:46.156Z,95480.70
2018-09-24T16:33:12.804Z,95490.69
2018-09-24T16:35:39.441Z,95486.80
2018-09-24T16:38:06.148Z,95500.86
2018-09-24T16:40:32.799Z,95492.36
2018-09-24T16:42:59.521Z,95501.84
2018-09-24T16:45:26.165Z,95507.84
2018-09-24T16:47:52.813Z,95516.91
2018-09-24T16:50:19.458Z,95506.07
2018-09-24T16:52:46.239Z,95506.58
2018-09-24T16:55:14.884Z,95516.08
2018-09-24T16:57:41.528Z,95515.68
2018-09-24T17:00:08.172Z,95516.56
2018-09-24T17:02:34.840Z,95537.73
2018-09-24T17:05:01.989Z,95537.34
2018-09-24T17:07:28.590Z,95544.43
2018-09-24T17:09:55.365Z,95547.08
2018-09-24T17:12:22.007Z,95558.48
2018-09-24T17:14:48.643Z,95560.12
2018-09-24T17:17:15.393Z,95563.68
2018-09-24T17:19:42.119Z,95575.80
2018-09-24T17:22:08.761Z,95575.95
2018-09-24T17:24:35.462Z,95574.95
2018-09-24T17:27:02.098Z,95577.23
2018-09-24T17:29:28.822Z,95580.52
2018-09-24T17:31:55.439Z,95583.56
2018-09-24T17:34:23.468Z,95589.63
2018-09-24T17:36:48.854Z,95590.77
2018-09-24T17:39:15.497Z,95600.50
2018-09-24T17:41:42.268Z,95593.56
2018-09-24T17:44:08.869Z,95592.78
2018-09-24T17:46:35.513Z,95593.45
2018-09-24T17:49:02.148Z,95607.89
2018-09-24T17:51:28.790Z,95622.52
2018-09-24T17:53:55.527Z,95618.23
2018-09-24T17:56:23.349Z,95615.11
2018-09-24T17:58:48.817Z,95619.91
2018-09-24T18:01:15.472Z,95618.89
2018-09-24T18:03:42.101Z,95629.89
2018-09-24T18:06:08.745Z,95625.83
2018-09-24T18:08:35.453Z,95631.14
2018-09-24T18:11:02.089Z,95639.14
2018-09-24T18:13:28.733Z,95643.54
2018-09-24T18:15:55.388Z,95651.00
2018-09-24T18:18:22.028Z,95655.30
2018-09-24T18:20:48.686Z,95672.61
2018-09-24T18:23:15.313Z,95670.86
2018-09-24T18:25:42.009Z,95667.70
2018-09-24T18:28:08.659Z,95679.20
2018-09-24T18:30:35.388Z,95691.56
2018-09-24T18:33:02.094Z,95698.28
2018-09-24T18:35:28.670Z,95702.70
2018-09-24T18:37:55.370Z,95715.22
2018-09-24T18:40:22.075Z,95719.27
2018-09-24T18:42:48.719Z,95721.03
2018-09-24T18:45:16.662Z,95730.39
2018-09-24T18:47:42.127Z,95738.33
2018-09-24T18:50:08.839Z,95742.50
2018-09-24T18:52:35.483Z,95747.94
2018-09-24T18:55:02.124Z,95759.05
2018-09-24T18:57:28.747Z,95745.91
2018-09-24T18:59:56.100Z,95755.66
2018-09-24T19:02:22.741Z,95747.06
2018-09-24T19:04:49.435Z,95752.88
2018-09-24T19:07:16.075Z,95759.69
2018-09-24T19:09:42.736Z,95755.52
2018-09-24T19:12:09.408Z,95771.20
2018-09-24T19:14:36.093Z,95779.91
2018-09-24T19:17:02.739Z,95778.64
2018-09-24T19:19:29.430Z,95785.20
2018-09-24T19:21:56.069Z,95783.19
2018-09-24T19:24:22.734Z,95793.05
2018-09-24T19:26:52.163Z,95785.45
2018-09-24T19:29:18.824Z,95797.09
2018-09-24T19:31:45.579Z,95796.58
2018-09-24T19:34:12.158Z,95791.41
2018-09-24T19:36:38.806Z,95798.08
2018-09-24T19:39:05.433Z,95811.84
2018-09-24T19:41:32.170Z,95808.95
2018-09-24T19:43:58.853Z,95810.83
2018-09-24T19:46:25.484Z,95811.84
2018-09-24T19:48:52.140Z,95812.22
2018-09-24T19:51:18.819Z,95804.89
2018-09-24T19:53:48.189Z,95817.51
2018-09-24T19:56:17.186Z,95809.31
2018-09-24T19:58:42.496Z,95815.11
2018-09-24T20:01:09.126Z,95813.09
2018-09-24T20:03:35.841Z,95809.80
2018-09-24T20:06:02.490Z,95803.11
2018-09-24T20:08:29.131Z,95813.73
2018-09-24T20:10:55.765Z,95818.77
2018-09-24T20:13:22.424Z,95808.28
2018-09-24T20:15:49.090Z,95813.59
2018-09-24T20:18:17.317Z,95812.20
2018-09-24T20:20:42.570Z,95816.86
2018-09-24T20:23:12.639Z,95814.85
2018-09-24T20:25:39.329Z,95820.41
2018-09-24T20:28:05.966Z,95830.23
2018-09-24T20:30:32.620Z,95825.58
2018-09-24T20:32:59.293Z,95838.19
2018-09-24T20:35:29.292Z,95839.82
2018-09-24T20:37:55.936Z,95846.39
2018-09-24T20:40:22.581Z,95859.53
2018-09-24T20:42:49.640Z,95859.64
2018-09-24T20:45:17.671Z,95858.39
2018-09-24T20:47:42.992Z,95869.98
2018-09-24T20:50:09.643Z,95869.74
2018-09-24T20:52:36.294Z,95874.40
2018-09-24T20:55:02.983Z,95883.48
2018-09-24T20:57:30.967Z,95883.88
2018-09-24T20:59:56.306Z,95880.71
2018-09-24T21:02:22.932Z,95890.53
2018-09-24T21:04:49.583Z,95884.73
2018-09-24T21:07:16.309Z,95887.89
2018-09-24T21:09:42.959Z,95906.19
2018-09-24T21:12:09.641Z,95893.93
2018-09-24T21:14:36.338Z,95890.28
2018-09-24T21:17:03.034Z,95890.64
2018-09-24T21:19:29.670Z,95898.20
2018-09-24T21:21:56.308Z,95898.83
2018-09-24T21:24:25.008Z,95898.44
2018-09-24T21:26:49.588Z,95902.98
2018-09-24T21:29:16.226Z,95901.88
2018-09-24T21:31:42.862Z,95903.99
2018-09-24T21:34:09.629Z,95906.90
2018-09-24T21:36:36.381Z,95910.30
2018-09-24T21:39:03.064Z,95912.80
2018-09-24T21:41:29.700Z,95910.39
2018-09-24T21:43:56.347Z,95900.20
2018-09-24T21:46:23.185Z,95904.32
2018-09-24T21:48:49.629Z,95902.21
2018-09-24T21:51:16.281Z,95895.36
2018-09-24T21:53:42.920Z,95896.75
2018-09-24T21:56:09.549Z,95898.48
2018-09-24T21:58:36.226Z,95900.00
2018-09-24T22:01:02.875Z,95905.94
2018-09-24T22:03:29.671Z,95909.72
2018-09-24T22:05:56.264Z,95919.28
2018-09-24T22:08:22.932Z,95918.91
2018-09-24T22:10:49.578Z,95917.03
2018-09-24T22:13:16.225Z,95916.89
2018-09-24T22:15:42.915Z,95929.38
2018-09-24T22:18:12.901Z,95925.59
2018-09-24T22:20:39.551Z,95918.38
2018-09-24T22:23:06.214Z,95920.97
2018-09-24T22:25:32.901Z,95929.24
2018-09-24T22:28:00.612Z,95928.36
2018-09-24T22:30:27.288Z,95935.22
2018-09-24T22:32:54.031Z,95934.97
2018-09-24T22:35:20.716Z,95935.98
2018-09-24T22:37:47.349Z,95937.73
2018-09-24T22:40:13.988Z,95934.05
2018-09-24T22:42:40.674Z,95938.85
2018-09-24T22:45:07.412Z,95935.98
2018-09-24T22:47:34.084Z,95939.61
2018-09-24T22:50:00.722Z,95936.83
2018-09-24T22:52:27.397Z,95940.61
2018-09-24T22:54:54.043Z,95948.68
2018-09-24T22:57:20.737Z,95953.31
2018-09-24T22:59:47.477Z,95946.54
2018-09-24T23:02:14.110Z,95940.31
2018-09-24T23:04:40.825Z,95941.94
2018-09-24T23:07:07.464Z,95949.01
2018-09-24T23:09:34.194Z,95944.47
2018-09-24T23:12:00.836Z,95944.09
2018-09-24T23:14:27.469Z,95946.36
2018-09-24T23:16:54.108Z,95946.62
2018-09-24T23:19:20.739Z,95949.70
2018-09-24T23:21:47.426Z,95962.97
2018-09-24T23:24:14.135Z,95961.71
2018-09-24T23:26:40.830Z,95963.72
2018-09-24T23:29:07.505Z,95966.11
2018-09-24T23:31:37.685Z,95960.16
2018-09-24T23:34:04.464Z,95957.14
2018-09-24T23:36:31.183Z,95956.11
2018-09-24T23:39:02.143Z,95964.03
2018-09-24T23:41:27.688Z,95967.94
2018-09-24T23:43:54.359Z,95962.64
2018-09-24T23:46:21.036Z,95966.34
2018-09-24T23:48:47.761Z,95968.95
2018-09-24T23:51:14.392Z,95969.73
2018-09-24T23:53:41.182Z,95970.33
2018-09-24T23:56:07.922Z,95973.58
2018-09-24T23:58:34.697Z,95968.55
